sensor_id;sensor_type;location;lat;lon;timestamp;P1;durP1;ratioP1;P2;durP2;ratioP2
4174;SDS011;2101;48.290;14.382;2023-04-06T00:00:16;13.40;;;1.70;;
4174;SDS011;2101;48.290;14.382;2023-04-06T00:02:42;11.07;;;1.53;;
4174;SDS011;2101;48.290;14.382;2023-04-06T00:05:08;11.50;;;1.60;;
4174;SDS011;2101;48.290;14.382;2023-04-06T00:07:34;11.33;;;1.73;;
4174;SDS011;2101;48.290;14.382;2023-04-06T00:10:01;15.53;;;2.03;;
4174;SDS011;2101;48.290;14.382;2023-04-06T00:12:27;11.07;;;1.90;;
4174;SDS011;2101;48.290;14.382;2023-04-06T00:14:53;11.17;;;1.50;;
4174;SDS011;2101;48.290;14.382;2023-04-06T00:17:19;13.50;;;2.20;;
4174;SDS011;2101;48.290;14.382;2023-04-06T00:19:45;10.90;;;1.60;;
4174;SDS011;2101;48.290;14.382;2023-04-06T00:22:11;11.50;;;1.90;;
4174;SDS011;2101;48.290;14.382;2023-04-06T00:24:37;12.60;;;1.90;;
4174;SDS011;2101;48.290;14.382;2023-04-06T00:27:03;11.00;;;1.70;;
4174;SDS011;2101;48.290;14.382;2023-04-06T00:29:29;12.60;;;2.10;;
4174;SDS011;2101;48.290;14.382;2023-04-06T00:31:55;17.90;;;2.00;;
4174;SDS011;2101;48.290;14.382;2023-04-06T00:34:21;18.93;;;2.70;;
4174;SDS011;2101;48.290;14.382;2023-04-06T00:36:48;11.80;;;1.77;;
4174;SDS011;2101;48.290;14.382;2023-04-06T00:39:14;16.60;;;2.90;;
4174;SDS011;2101;48.290;14.382;2023-04-06T00:41:41;12.73;;;1.57;;
4174;SDS011;2101;48.290;14.382;2023-04-06T00:44:10;11.40;;;1.30;;
4174;SDS011;2101;48.290;14.382;2023-04-06T00:46:36;12.07;;;1.80;;
4174;SDS011;2101;48.290;14.382;2023-04-06T00:49:03;13.43;;;1.90;;
4174;SDS011;2101;48.290;14.382;2023-04-06T00:51:29;14.33;;;2.20;;
4174;SDS011;2101;48.290;14.382;2023-04-06T00:53:55;12.93;;;2.00;;
4174;SDS011;2101;48.290;14.382;2023-04-06T00:56:21;10.40;;;1.40;;
4174;SDS011;2101;48.290;14.382;2023-04-06T00:58:48;11.20;;;1.63;;
4174;SDS011;2101;48.290;14.382;2023-04-06T01:01:15;12.83;;;1.93;;
4174;SDS011;2101;48.290;14.382;2023-04-06T01:03:41;10.57;;;1.70;;
4174;SDS011;2101;48.290;14.382;2023-04-06T01:06:09;11.70;;;2.17;;
4174;SDS011;2101;48.290;14.382;2023-04-06T01:08:35;10.83;;;1.70;;
4174;SDS011;2101;48.290;14.382;2023-04-06T01:11:02;10.20;;;1.30;;
4174;SDS011;2101;48.290;14.382;2023-04-06T01:13:28;11.67;;;2.00;;
4174;SDS011;2101;48.290;14.382;2023-04-06T01:15:54;12.87;;;2.00;;
4174;SDS011;2101;48.290;14.382;2023-04-06T01:18:25;14.60;;;1.77;;
4174;SDS011;2101;48.290;14.382;2023-04-06T01:20:51;11.43;;;2.03;;
4174;SDS011;2101;48.290;14.382;2023-04-06T01:23:17;18.73;;;2.00;;
4174;SDS011;2101;48.290;14.382;2023-04-06T01:25:43;12.27;;;1.83;;
4174;SDS011;2101;48.290;14.382;2023-04-06T01:28:09;12.17;;;2.00;;
4174;SDS011;2101;48.290;14.382;2023-04-06T01:30:36;12.13;;;1.93;;
4174;SDS011;2101;48.290;14.382;2023-04-06T01:33:02;12.03;;;1.50;;
4174;SDS011;2101;48.290;14.382;2023-04-06T01:35:28;12.43;;;1.60;;
4174;SDS011;2101;48.290;14.382;2023-04-06T01:37:55;12.67;;;2.27;;
4174;SDS011;2101;48.290;14.382;2023-04-06T01:40:21;17.10;;;1.80;;
4174;SDS011;2101;48.290;14.382;2023-04-06T01:42:47;11.77;;;1.60;;
4174;SDS011;2101;48.290;14.382;2023-04-06T01:45:13;12.83;;;1.77;;
4174;SDS011;2101;48.290;14.382;2023-04-06T01:47:39;10.70;;;1.53;;
4174;SDS011;2101;48.290;14.382;2023-04-06T01:50:06;11.47;;;1.70;;
4174;SDS011;2101;48.290;14.382;2023-04-06T01:52:35;13.97;;;1.93;;
4174;SDS011;2101;48.290;14.382;2023-04-06T01:55:01;11.20;;;1.50;;
4174;SDS011;2101;48.290;14.382;2023-04-06T01:57:27;23.30;;;2.20;;
4174;SDS011;2101;48.290;14.382;2023-04-06T01:59:53;13.80;;;1.90;;
4174;SDS011;2101;48.290;14.382;2023-04-06T02:02:19;11.63;;;1.60;;
4174;SDS011;2101;48.290;14.382;2023-04-06T02:04:45;12.10;;;2.20;;
4174;SDS011;2101;48.290;14.382;2023-04-06T02:07:11;11.80;;;1.90;;
4174;SDS011;2101;48.290;14.382;2023-04-06T02:09:38;12.20;;;2.00;;
4174;SDS011;2101;48.290;14.382;2023-04-06T02:12:04;11.53;;;1.97;;
4174;SDS011;2101;48.290;14.382;2023-04-06T02:14:30;12.20;;;2.07;;
4174;SDS011;2101;48.290;14.382;2023-04-06T02:16:56;14.53;;;2.37;;
4174;SDS011;2101;48.290;14.382;2023-04-06T02:19:22;17.90;;;2.37;;
4174;SDS011;2101;48.290;14.382;2023-04-06T02:21:48;10.70;;;1.77;;
4174;SDS011;2101;48.290;14.382;2023-04-06T02:24:15;13.00;;;2.30;;
4174;SDS011;2101;48.290;14.382;2023-04-06T02:26:41;12.80;;;2.07;;
4174;SDS011;2101;48.290;14.382;2023-04-06T02:29:07;12.73;;;2.27;;
4174;SDS011;2101;48.290;14.382;2023-04-06T02:31:33;11.90;;;2.03;;
4174;SDS011;2101;48.290;14.382;2023-04-06T02:34:00;12.83;;;1.90;;
4174;SDS011;2101;48.290;14.382;2023-04-06T02:36:26;12.27;;;2.30;;
4174;SDS011;2101;48.290;14.382;2023-04-06T02:38:52;16.80;;;2.03;;
4174;SDS011;2101;48.290;14.382;2023-04-06T02:41:18;13.00;;;2.03;;
4174;SDS011;2101;48.290;14.382;2023-04-06T02:43:44;12.00;;;2.07;;
4174;SDS011;2101;48.290;14.382;2023-04-06T02:46:10;11.90;;;1.97;;
4174;SDS011;2101;48.290;14.382;2023-04-06T02:48:36;17.33;;;2.10;;
4174;SDS011;2101;48.290;14.382;2023-04-06T02:51:02;11.60;;;1.90;;
4174;SDS011;2101;48.290;14.382;2023-04-06T02:53:29;11.90;;;1.80;;
4174;SDS011;2101;48.290;14.382;2023-04-06T02:55:55;10.67;;;2.20;;
4174;SDS011;2101;48.290;14.382;2023-04-06T02:58:21;13.73;;;1.60;;
4174;SDS011;2101;48.290;14.382;2023-04-06T03:00:47;12.60;;;2.20;;
4174;SDS011;2101;48.290;14.382;2023-04-06T03:03:13;11.23;;;1.67;;
4174;SDS011;2101;48.290;14.382;2023-04-06T03:05:40;10.77;;;1.90;;
4174;SDS011;2101;48.290;14.382;2023-04-06T03:08:06;12.40;;;2.27;;
4174;SDS011;2101;48.290;14.382;2023-04-06T03:10:32;20.33;;;1.90;;
4174;SDS011;2101;48.290;14.382;2023-04-06T03:12:58;12.97;;;2.53;;
4174;SDS011;2101;48.290;14.382;2023-04-06T03:15:24;18.07;;;2.30;;
4174;SDS011;2101;48.290;14.382;2023-04-06T03:17:51;10.87;;;1.83;;
4174;SDS011;2101;48.290;14.382;2023-04-06T03:20:17;12.87;;;2.43;;
4174;SDS011;2101;48.290;14.382;2023-04-06T03:22:43;12.40;;;1.87;;
4174;SDS011;2101;48.290;14.382;2023-04-06T03:25:09;11.77;;;2.37;;
4174;SDS011;2101;48.290;14.382;2023-04-06T03:27:35;11.13;;;2.00;;
4174;SDS011;2101;48.290;14.382;2023-04-06T03:30:01;13.37;;;2.03;;
4174;SDS011;2101;48.290;14.382;2023-04-06T03:32:27;12.70;;;2.00;;
4174;SDS011;2101;48.290;14.382;2023-04-06T03:34:54;11.97;;;2.27;;
4174;SDS011;2101;48.290;14.382;2023-04-06T03:37:20;10.80;;;1.73;;
4174;SDS011;2101;48.290;14.382;2023-04-06T03:39:46;12.23;;;2.10;;
4174;SDS011;2101;48.290;14.382;2023-04-06T03:42:12;12.20;;;2.50;;
4174;SDS011;2101;48.290;14.382;2023-04-06T03:44:38;13.20;;;2.17;;
4174;SDS011;2101;48.290;14.382;2023-04-06T03:47:04;15.00;;;1.70;;
4174;SDS011;2101;48.290;14.382;2023-04-06T03:49:30;10.50;;;1.70;;
4174;SDS011;2101;48.290;14.382;2023-04-06T03:51:56;12.03;;;2.10;;
4174;SDS011;2101;48.290;14.382;2023-04-06T03:54:22;11.00;;;1.93;;
4174;SDS011;2101;48.290;14.382;2023-04-06T03:56:49;14.47;;;2.10;;
4174;SDS011;2101;48.290;14.382;2023-04-06T03:59:15;15.70;;;2.07;;
4174;SDS011;2101;48.290;14.382;2023-04-06T04:01:41;14.73;;;2.10;;
4174;SDS011;2101;48.290;14.382;2023-04-06T04:04:07;21.53;;;4.90;;
4174;SDS011;2101;48.290;14.382;2023-04-06T04:06:33;20.07;;;4.60;;
4174;SDS011;2101;48.290;14.382;2023-04-06T04:09:01;16.00;;;3.60;;
4174;SDS011;2101;48.290;14.382;2023-04-06T04:11:27;17.10;;;4.20;;
4174;SDS011;2101;48.290;14.382;2023-04-06T04:13:53;21.10;;;3.63;;
4174;SDS011;2101;48.290;14.382;2023-04-06T04:16:19;15.53;;;3.60;;
4174;SDS011;2101;48.290;14.382;2023-04-06T04:18:45;29.53;;;3.80;;
4174;SDS011;2101;48.290;14.382;2023-04-06T04:21:13;14.90;;;3.23;;
4174;SDS011;2101;48.290;14.382;2023-04-06T04:23:39;32.13;;;4.37;;
4174;SDS011;2101;48.290;14.382;2023-04-06T04:26:06;16.30;;;3.90;;
4174;SDS011;2101;48.290;14.382;2023-04-06T04:28:32;18.57;;;4.13;;
4174;SDS011;2101;48.290;14.382;2023-04-06T04:30:58;28.63;;;5.10;;
4174;SDS011;2101;48.290;14.382;2023-04-06T04:33:24;18.70;;;4.60;;
4174;SDS011;2101;48.290;14.382;2023-04-06T04:35:51;20.83;;;3.30;;
4174;SDS011;2101;48.290;14.382;2023-04-06T04:38:17;25.50;;;3.60;;
4174;SDS011;2101;48.290;14.382;2023-04-06T04:40:43;13.07;;;3.07;;
4174;SDS011;2101;48.290;14.382;2023-04-06T04:43:09;15.77;;;3.50;;
4174;SDS011;2101;48.290;14.382;2023-04-06T04:45:35;13.30;;;2.43;;
4174;SDS011;2101;48.290;14.382;2023-04-06T04:48:01;13.40;;;3.00;;
4174;SDS011;2101;48.290;14.382;2023-04-06T04:50:29;16.37;;;3.27;;
4174;SDS011;2101;48.290;14.382;2023-04-06T04:52:55;13.27;;;3.60;;
4174;SDS011;2101;48.290;14.382;2023-04-06T04:55:21;16.43;;;3.60;;
4174;SDS011;2101;48.290;14.382;2023-04-06T04:57:48;54.17;;;4.53;;
4174;SDS011;2101;48.290;14.382;2023-04-06T05:00:14;19.17;;;4.87;;
4174;SDS011;2101;48.290;14.382;2023-04-06T05:02:40;21.53;;;4.50;;
4174;SDS011;2101;48.290;14.382;2023-04-06T05:05:06;20.23;;;4.20;;
4174;SDS011;2101;48.290;14.382;2023-04-06T05:07:33;26.50;;;5.10;;
4174;SDS011;2101;48.290;14.382;2023-04-06T05:09:59;13.40;;;2.40;;
4174;SDS011;2101;48.290;14.382;2023-04-06T05:12:25;14.30;;;3.03;;
4174;SDS011;2101;48.290;14.382;2023-04-06T05:14:53;14.30;;;2.90;;
4174;SDS011;2101;48.290;14.382;2023-04-06T05:17:19;15.63;;;3.50;;
4174;SDS011;2101;48.290;14.382;2023-04-06T05:19:45;16.23;;;2.60;;
4174;SDS011;2101;48.290;14.382;2023-04-06T05:22:11;15.87;;;3.00;;
4174;SDS011;2101;48.290;14.382;2023-04-06T05:24:39;13.37;;;3.13;;
4174;SDS011;2101;48.290;14.382;2023-04-06T05:27:05;14.67;;;3.37;;
4174;SDS011;2101;48.290;14.382;2023-04-06T05:29:31;14.50;;;3.33;;
4174;SDS011;2101;48.290;14.382;2023-04-06T05:31:57;15.30;;;2.70;;
4174;SDS011;2101;48.290;14.382;2023-04-06T05:34:23;15.20;;;3.00;;
4174;SDS011;2101;48.290;14.382;2023-04-06T05:36:50;20.80;;;3.03;;
4174;SDS011;2101;48.290;14.382;2023-04-06T05:39:16;12.83;;;2.57;;
4174;SDS011;2101;48.290;14.382;2023-04-06T05:41:42;14.60;;;3.37;;
4174;SDS011;2101;48.290;14.382;2023-04-06T05:44:08;18.53;;;2.83;;
4174;SDS011;2101;48.290;14.382;2023-04-06T05:46:34;20.60;;;4.50;;
4174;SDS011;2101;48.290;14.382;2023-04-06T05:49:00;17.93;;;3.53;;
4174;SDS011;2101;48.290;14.382;2023-04-06T05:51:26;20.27;;;3.77;;
4174;SDS011;2101;48.290;14.382;2023-04-06T05:53:52;18.43;;;4.27;;
4174;SDS011;2101;48.290;14.382;2023-04-06T05:56:18;20.23;;;4.33;;
4174;SDS011;2101;48.290;14.382;2023-04-06T05:58:45;21.77;;;5.47;;
4174;SDS011;2101;48.290;14.382;2023-04-06T06:01:11;15.63;;;4.00;;
4174;SDS011;2101;48.290;14.382;2023-04-06T06:03:37;13.60;;;3.00;;
4174;SDS011;2101;48.290;14.382;2023-04-06T06:06:04;19.37;;;3.20;;
4174;SDS011;2101;48.290;14.382;2023-04-06T06:08:30;14.37;;;3.30;;
4174;SDS011;2101;48.290;14.382;2023-04-06T06:10:56;16.90;;;3.20;;
4174;SDS011;2101;48.290;14.382;2023-04-06T06:13:23;17.87;;;4.30;;
4174;SDS011;2101;48.290;14.382;2023-04-06T06:15:49;17.10;;;3.37;;
4174;SDS011;2101;48.290;14.382;2023-04-06T06:18:16;21.77;;;4.40;;
4174;SDS011;2101;48.290;14.382;2023-04-06T06:20:42;19.90;;;3.90;;
4174;SDS011;2101;48.290;14.382;2023-04-06T06:23:08;15.57;;;3.70;;
4174;SDS011;2101;48.290;14.382;2023-04-06T06:25:34;16.87;;;3.63;;
4174;SDS011;2101;48.290;14.382;2023-04-06T06:28:00;22.73;;;4.27;;
4174;SDS011;2101;48.290;14.382;2023-04-06T06:30:26;17.23;;;4.20;;
4174;SDS011;2101;48.290;14.382;2023-04-06T06:32:52;15.53;;;3.70;;
4174;SDS011;2101;48.290;14.382;2023-04-06T06:35:18;18.23;;;5.10;;
4174;SDS011;2101;48.290;14.382;2023-04-06T06:37:44;23.20;;;4.80;;
4174;SDS011;2101;48.290;14.382;2023-04-06T06:40:10;19.63;;;4.70;;
4174;SDS011;2101;48.290;14.382;2023-04-06T06:42:38;23.70;;;5.13;;
4174;SDS011;2101;48.290;14.382;2023-04-06T06:45:05;25.33;;;6.60;;
4174;SDS011;2101;48.290;14.382;2023-04-06T06:47:31;25.77;;;6.40;;
4174;SDS011;2101;48.290;14.382;2023-04-06T06:49:57;28.10;;;4.90;;
4174;SDS011;2101;48.290;14.382;2023-04-06T06:52:23;27.10;;;6.43;;
4174;SDS011;2101;48.290;14.382;2023-04-06T06:54:49;38.30;;;7.53;;
4174;SDS011;2101;48.290;14.382;2023-04-06T06:57:15;40.40;;;6.97;;
4174;SDS011;2101;48.290;14.382;2023-04-06T06:59:42;25.53;;;6.60;;
4174;SDS011;2101;48.290;14.382;2023-04-06T07:02:08;28.33;;;6.83;;
4174;SDS011;2101;48.290;14.382;2023-04-06T07:04:34;30.00;;;5.80;;
4174;SDS011;2101;48.290;14.382;2023-04-06T07:07:00;25.60;;;5.60;;
4174;SDS011;2101;48.290;14.382;2023-04-06T07:09:26;18.43;;;4.60;;
4174;SDS011;2101;48.290;14.382;2023-04-06T07:11:52;16.67;;;4.10;;
4174;SDS011;2101;48.290;14.382;2023-04-06T07:14:19;26.40;;;4.60;;
4174;SDS011;2101;48.290;14.382;2023-04-06T07:16:45;17.93;;;4.60;;
4174;SDS011;2101;48.290;14.382;2023-04-06T07:19:11;23.50;;;4.53;;
4174;SDS011;2101;48.290;14.382;2023-04-06T07:21:37;25.10;;;4.40;;
4174;SDS011;2101;48.290;14.382;2023-04-06T07:24:04;22.70;;;4.70;;
4174;SDS011;2101;48.290;14.382;2023-04-06T07:26:30;30.20;;;5.80;;
4174;SDS011;2101;48.290;14.382;2023-04-06T07:29:00;20.43;;;5.20;;
4174;SDS011;2101;48.290;14.382;2023-04-06T07:31:26;21.43;;;5.97;;
4174;SDS011;2101;48.290;14.382;2023-04-06T07:33:52;19.73;;;5.30;;
4174;SDS011;2101;48.290;14.382;2023-04-06T07:36:20;17.57;;;3.90;;
4174;SDS011;2101;48.290;14.382;2023-04-06T07:38:47;20.20;;;5.03;;
4174;SDS011;2101;48.290;14.382;2023-04-06T07:41:13;20.67;;;6.07;;
4174;SDS011;2101;48.290;14.382;2023-04-06T07:43:40;21.13;;;5.70;;
4174;SDS011;2101;48.290;14.382;2023-04-06T07:46:06;21.20;;;4.47;;
4174;SDS011;2101;48.290;14.382;2023-04-06T07:48:32;21.60;;;4.37;;
4174;SDS011;2101;48.290;14.382;2023-04-06T07:51:02;24.23;;;4.87;;
4174;SDS011;2101;48.290;14.382;2023-04-06T07:53:28;33.10;;;6.10;;
4174;SDS011;2101;48.290;14.382;2023-04-06T07:55:54;26.00;;;4.27;;
4174;SDS011;2101;48.290;14.382;2023-04-06T07:58:21;19.90;;;4.83;;
4174;SDS011;2101;48.290;14.382;2023-04-06T08:00:51;18.27;;;4.90;;
4174;SDS011;2101;48.290;14.382;2023-04-06T08:03:17;20.80;;;4.47;;
4174;SDS011;2101;48.290;14.382;2023-04-06T08:05:45;18.57;;;4.57;;
4174;SDS011;2101;48.290;14.382;2023-04-06T08:08:11;18.67;;;4.63;;
4174;SDS011;2101;48.290;14.382;2023-04-06T08:10:37;28.80;;;4.90;;
4174;SDS011;2101;48.290;14.382;2023-04-06T08:13:03;30.23;;;5.03;;
4174;SDS011;2101;48.290;14.382;2023-04-06T08:15:30;26.07;;;4.07;;
4174;SDS011;2101;48.290;14.382;2023-04-06T08:17:56;19.03;;;5.13;;
4174;SDS011;2101;48.290;14.382;2023-04-06T08:20:22;17.87;;;4.30;;
4174;SDS011;2101;48.290;14.382;2023-04-06T08:22:48;21.60;;;5.50;;
4174;SDS011;2101;48.290;14.382;2023-04-06T08:25:15;21.40;;;4.97;;
4174;SDS011;2101;48.290;14.382;2023-04-06T08:27:41;20.73;;;4.57;;
4174;SDS011;2101;48.290;14.382;2023-04-06T08:30:08;24.77;;;6.97;;
4174;SDS011;2101;48.290;14.382;2023-04-06T08:32:36;34.13;;;7.03;;
4174;SDS011;2101;48.290;14.382;2023-04-06T08:35:23;49.77;;;6.60;;
4174;SDS011;2101;48.290;14.382;2023-04-06T08:37:50;38.83;;;6.33;;
4174;SDS011;2101;48.290;14.382;2023-04-06T08:40:18;39.23;;;6.60;;
4174;SDS011;2101;48.290;14.382;2023-04-06T08:42:49;30.57;;;5.93;;
4174;SDS011;2101;48.290;14.382;2023-04-06T08:45:16;30.73;;;5.50;;
4174;SDS011;2101;48.290;14.382;2023-04-06T08:47:51;29.10;;;6.43;;
4174;SDS011;2101;48.290;14.382;2023-04-06T08:50:17;28.47;;;6.77;;
4174;SDS011;2101;48.290;14.382;2023-04-06T08:52:47;29.93;;;5.70;;
4174;SDS011;2101;48.290;14.382;2023-04-06T08:55:26;29.40;;;5.47;;
4174;SDS011;2101;48.290;14.382;2023-04-06T08:57:53;22.37;;;5.57;;
4174;SDS011;2101;48.290;14.382;2023-04-06T09:00:26;22.83;;;6.00;;
4174;SDS011;2101;48.290;14.382;2023-04-06T09:02:55;28.00;;;7.07;;
4174;SDS011;2101;48.290;14.382;2023-04-06T09:05:39;24.70;;;5.73;;
4174;SDS011;2101;48.290;14.382;2023-04-06T09:08:07;20.37;;;4.33;;
4174;SDS011;2101;48.290;14.382;2023-04-06T09:10:33;19.60;;;4.80;;
4174;SDS011;2101;48.290;14.382;2023-04-06T09:13:05;21.20;;;4.70;;
4174;SDS011;2101;48.290;14.382;2023-04-06T09:15:32;38.30;;;5.90;;
4174;SDS011;2101;48.290;14.382;2023-04-06T09:18:01;21.20;;;4.50;;
4174;SDS011;2101;48.290;14.382;2023-04-06T09:33:31;23.63;;;3.90;;
4174;SDS011;2101;48.290;14.382;2023-04-06T09:36:05;23.30;;;3.70;;
4174;SDS011;2101;48.290;14.382;2023-04-06T09:38:33;19.40;;;3.33;;
4174;SDS011;2101;48.290;14.382;2023-04-06T09:41:00;19.40;;;3.33;;
4174;SDS011;2101;48.290;14.382;2023-04-06T12:33:33;18.63;;;3.00;;
4174;SDS011;2101;48.290;14.382;2023-04-06T12:36:13;15.23;;;2.97;;
4174;SDS011;2101;48.290;14.382;2023-04-06T12:38:49;14.77;;;2.40;;
4174;SDS011;2101;48.290;14.382;2023-04-06T12:41:17;20.40;;;2.40;;
4174;SDS011;2101;48.290;14.382;2023-04-06T12:43:45;14.73;;;2.60;;
4174;SDS011;2101;48.290;14.382;2023-04-06T12:46:12;14.00;;;2.53;;
4174;SDS011;2101;48.290;14.382;2023-04-06T12:48:43;14.97;;;2.53;;
4174;SDS011;2101;48.290;14.382;2023-04-06T12:51:15;20.10;;;2.87;;
4174;SDS011;2101;48.290;14.382;2023-04-06T12:54:00;14.50;;;2.60;;
4174;SDS011;2101;48.290;14.382;2023-04-06T12:56:26;15.80;;;2.83;;
4174;SDS011;2101;48.290;14.382;2023-04-06T12:58:53;14.80;;;2.43;;
4174;SDS011;2101;48.290;14.382;2023-04-06T13:01:20;16.70;;;2.53;;
4174;SDS011;2101;48.290;14.382;2023-04-06T13:03:56;13.90;;;2.23;;
4174;SDS011;2101;48.290;14.382;2023-04-06T13:06:24;14.00;;;2.30;;
4174;SDS011;2101;48.290;14.382;2023-04-06T13:08:55;16.20;;;3.37;;
4174;SDS011;2101;48.290;14.382;2023-04-06T13:11:30;25.77;;;2.90;;
4174;SDS011;2101;48.290;14.382;2023-04-06T13:13:57;14.40;;;2.27;;
4174;SDS011;2101;48.290;14.382;2023-04-06T13:16:24;16.73;;;2.17;;
4174;SDS011;2101;48.290;14.382;2023-04-06T13:18:54;13.77;;;2.30;;
4174;SDS011;2101;48.290;14.382;2023-04-06T13:21:24;13.63;;;2.40;;
4174;SDS011;2101;48.290;14.382;2023-04-06T13:23:50;14.00;;;2.40;;
4174;SDS011;2101;48.290;14.382;2023-04-06T13:26:20;15.20;;;2.13;;
4174;SDS011;2101;48.290;14.382;2023-04-06T13:28:46;13.53;;;2.40;;
4174;SDS011;2101;48.290;14.382;2023-04-06T13:31:12;21.93;;;2.60;;
4174;SDS011;2101;48.290;14.382;2023-04-06T13:33:40;19.50;;;2.70;;
4174;SDS011;2101;48.290;14.382;2023-04-06T13:36:18;17.23;;;2.60;;
4174;SDS011;2101;48.290;14.382;2023-04-06T13:38:44;16.23;;;2.20;;
4174;SDS011;2101;48.290;14.382;2023-04-06T13:41:20;14.23;;;2.37;;
4174;SDS011;2101;48.290;14.382;2023-04-06T13:44:01;16.47;;;2.13;;
4174;SDS011;2101;48.290;14.382;2023-04-06T13:46:28;13.93;;;2.07;;
4174;SDS011;2101;48.290;14.382;2023-04-06T13:48:54;16.20;;;2.70;;
4174;SDS011;2101;48.290;14.382;2023-04-06T13:51:20;16.67;;;2.50;;
4174;SDS011;2101;48.290;14.382;2023-04-06T13:53:48;16.23;;;2.30;;
4174;SDS011;2101;48.290;14.382;2023-04-06T13:56:35;13.43;;;2.30;;
4174;SDS011;2101;48.290;14.382;2023-04-06T13:59:02;13.67;;;2.40;;
4174;SDS011;2101;48.290;14.382;2023-04-06T14:01:33;15.50;;;2.33;;
4174;SDS011;2101;48.290;14.382;2023-04-06T14:04:05;14.33;;;2.17;;
4174;SDS011;2101;48.290;14.382;2023-04-06T14:06:34;16.97;;;2.27;;
4174;SDS011;2101;48.290;14.382;2023-04-06T14:09:01;14.97;;;2.30;;
4174;SDS011;2101;48.290;14.382;2023-04-06T14:11:33;16.40;;;2.40;;
4174;SDS011;2101;48.290;14.382;2023-04-06T14:14:05;14.00;;;2.17;;
4174;SDS011;2101;48.290;14.382;2023-04-06T14:16:39;13.77;;;2.00;;
4174;SDS011;2101;48.290;14.382;2023-04-06T14:19:31;13.40;;;1.97;;
4174;SDS011;2101;48.290;14.382;2023-04-06T14:21:59;14.37;;;2.23;;
4174;SDS011;2101;48.290;14.382;2023-04-06T14:24:25;13.93;;;1.80;;
4174;SDS011;2101;48.290;14.382;2023-04-06T14:26:54;14.70;;;2.03;;
4174;SDS011;2101;48.290;14.382;2023-04-06T14:30:06;13.70;;;2.23;;
4174;SDS011;2101;48.290;14.382;2023-04-06T14:32:59;13.93;;;2.50;;
4174;SDS011;2101;48.290;14.382;2023-04-06T14:35:40;15.60;;;2.57;;
4174;SDS011;2101;48.290;14.382;2023-04-06T14:38:20;16.60;;;2.60;;
4174;SDS011;2101;48.290;14.382;2023-04-06T14:40:50;14.90;;;2.30;;
4174;SDS011;2101;48.290;14.382;2023-04-06T14:43:21;13.87;;;2.10;;
4174;SDS011;2101;48.290;14.382;2023-04-06T14:45:50;15.17;;;2.47;;
4174;SDS011;2101;48.290;14.382;2023-04-06T14:48:36;12.93;;;1.93;;
4174;SDS011;2101;48.290;14.382;2023-04-06T14:51:06;13.90;;;2.20;;
4174;SDS011;2101;48.290;14.382;2023-04-06T14:53:35;14.20;;;1.93;;
4174;SDS011;2101;48.290;14.382;2023-04-06T14:56:08;12.30;;;1.50;;
4174;SDS011;2101;48.290;14.382;2023-04-06T14:58:35;13.03;;;1.70;;
4174;SDS011;2101;48.290;14.382;2023-04-06T15:01:02;13.60;;;1.70;;
4174;SDS011;2101;48.290;14.382;2023-04-06T15:03:29;18.90;;;2.97;;
4174;SDS011;2101;48.290;14.382;2023-04-06T15:05:57;13.13;;;2.10;;
4174;SDS011;2101;48.290;14.382;2023-04-06T15:08:23;14.00;;;2.13;;
4174;SDS011;2101;48.290;14.382;2023-04-06T15:10:50;18.90;;;2.00;;
4174;SDS011;2101;48.290;14.382;2023-04-06T15:13:17;14.97;;;2.00;;
4174;SDS011;2101;48.290;14.382;2023-04-06T15:15:44;14.43;;;2.47;;
4174;SDS011;2101;48.290;14.382;2023-04-06T15:18:10;14.73;;;2.50;;
4174;SDS011;2101;48.290;14.382;2023-04-06T15:20:41;14.40;;;2.00;;
4174;SDS011;2101;48.290;14.382;2023-04-06T15:23:07;15.03;;;2.23;;
4174;SDS011;2101;48.290;14.382;2023-04-06T15:25:40;14.33;;;2.40;;
4174;SDS011;2101;48.290;14.382;2023-04-06T15:28:17;15.90;;;2.20;;
4174;SDS011;2101;48.290;14.382;2023-04-06T15:59:19;15.13;;;2.37;;
4174;SDS011;2101;48.290;14.382;2023-04-06T16:01:46;13.97;;;2.10;;
4174;SDS011;2101;48.290;14.382;2023-04-06T16:04:12;17.20;;;1.97;;
4174;SDS011;2101;48.290;14.382;2023-04-06T16:09:50;15.33;;;2.50;;
4174;SDS011;2101;48.290;14.382;2023-04-06T16:12:42;15.97;;;2.63;;
4174;SDS011;2101;48.290;14.382;2023-04-06T16:15:55;15.50;;;2.33;;
4174;SDS011;2101;48.290;14.382;2023-04-06T16:18:44;15.70;;;2.30;;
4174;SDS011;2101;48.290;14.382;2023-04-06T16:25:11;16.40;;;2.37;;
4174;SDS011;2101;48.290;14.382;2023-04-06T16:28:18;14.93;;;2.53;;
4174;SDS011;2101;48.290;14.382;2023-04-06T16:31:06;13.50;;;2.30;;
4174;SDS011;2101;48.290;14.382;2023-04-06T16:33:54;16.00;;;2.40;;
4174;SDS011;2101;48.290;14.382;2023-04-06T16:37:06;25.03;;;3.40;;
4174;SDS011;2101;48.290;14.382;2023-04-06T16:42:45;15.10;;;2.67;;
4174;SDS011;2101;48.290;14.382;2023-04-06T16:45:21;20.70;;;2.40;;
4174;SDS011;2101;48.290;14.382;2023-04-06T16:47:51;17.67;;;2.13;;
4174;SDS011;2101;48.290;14.382;2023-04-06T16:50:18;13.90;;;2.17;;
4174;SDS011;2101;48.290;14.382;2023-04-06T16:53:27;13.77;;;2.00;;
4174;SDS011;2101;48.290;14.382;2023-04-06T16:55:55;16.27;;;2.20;;
4174;SDS011;2101;48.290;14.382;2023-04-06T16:58:22;22.33;;;2.90;;
4174;SDS011;2101;48.290;14.382;2023-04-06T17:00:48;14.73;;;2.67;;
4174;SDS011;2101;48.290;14.382;2023-04-06T17:03:14;14.47;;;2.03;;
4174;SDS011;2101;48.290;14.382;2023-04-06T17:05:41;14.83;;;2.50;;
4174;SDS011;2101;48.290;14.382;2023-04-06T18:00:27;15.97;;;2.93;;
4174;SDS011;2101;48.290;14.382;2023-04-06T18:03:07;16.27;;;2.97;;
4174;SDS011;2101;48.290;14.382;2023-04-06T18:05:39;16.97;;;3.40;;
4174;SDS011;2101;48.290;14.382;2023-04-06T18:08:11;15.00;;;3.00;;
4174;SDS011;2101;48.290;14.382;2023-04-06T18:10:38;20.67;;;3.80;;
4174;SDS011;2101;48.290;14.382;2023-04-06T18:13:09;16.57;;;2.70;;
4174;SDS011;2101;48.290;14.382;2023-04-06T18:15:41;15.63;;;2.30;;
4174;SDS011;2101;48.290;14.382;2023-04-06T18:18:07;15.53;;;2.00;;
4174;SDS011;2101;48.290;14.382;2023-04-06T18:20:38;17.53;;;2.37;;
4174;SDS011;2101;48.290;14.382;2023-04-06T18:23:05;14.40;;;2.60;;
4174;SDS011;2101;48.290;14.382;2023-04-06T18:25:36;16.47;;;2.47;;
4174;SDS011;2101;48.290;14.382;2023-04-06T18:28:02;15.60;;;2.10;;
4174;SDS011;2101;48.290;14.382;2023-04-06T18:30:28;16.70;;;2.63;;
4174;SDS011;2101;48.290;14.382;2023-04-06T18:32:59;13.13;;;2.27;;
4174;SDS011;2101;48.290;14.382;2023-04-06T18:35:32;12.30;;;1.47;;
4174;SDS011;2101;48.290;14.382;2023-04-06T18:37:59;14.57;;;2.40;;
4174;SDS011;2101;48.290;14.382;2023-04-06T18:40:29;13.60;;;2.20;;
4174;SDS011;2101;48.290;14.382;2023-04-06T18:43:01;15.93;;;2.03;;
4174;SDS011;2101;48.290;14.382;2023-04-06T18:45:28;16.77;;;3.07;;
4174;SDS011;2101;48.290;14.382;2023-04-06T18:47:56;15.00;;;2.20;;
4174;SDS011;2101;48.290;14.382;2023-04-06T18:50:23;15.87;;;2.40;;
4174;SDS011;2101;48.290;14.382;2023-04-06T18:52:55;19.20;;;2.43;;
4174;SDS011;2101;48.290;14.382;2023-04-06T18:55:31;13.43;;;1.77;;
4174;SDS011;2101;48.290;14.382;2023-04-06T18:57:59;15.03;;;2.77;;
4174;SDS011;2101;48.290;14.382;2023-04-06T19:00:25;13.60;;;2.10;;
4174;SDS011;2101;48.290;14.382;2023-04-06T19:02:53;13.73;;;2.03;;
4174;SDS011;2101;48.290;14.382;2023-04-06T19:05:24;17.87;;;2.20;;
4174;SDS011;2101;48.290;14.382;2023-04-06T19:07:50;16.43;;;1.93;;
4174;SDS011;2101;48.290;14.382;2023-04-06T19:10:17;15.40;;;2.13;;
4174;SDS011;2101;48.290;14.382;2023-04-06T19:12:47;13.77;;;2.00;;
4174;SDS011;2101;48.290;14.382;2023-04-06T19:15:16;12.70;;;1.93;;
4174;SDS011;2101;48.290;14.382;2023-04-06T19:23:01;12.90;;;2.00;;
4174;SDS011;2101;48.290;14.382;2023-04-06T19:25:32;13.37;;;2.23;;
4174;SDS011;2101;48.290;14.382;2023-04-06T19:27:59;14.07;;;2.00;;
4174;SDS011;2101;48.290;14.382;2023-04-06T19:35:45;13.70;;;2.20;;
4174;SDS011;2101;48.290;14.382;2023-04-06T19:40:53;22.90;;;5.30;;
4174;SDS011;2101;48.290;14.382;2023-04-06T19:43:22;21.37;;;3.57;;